Airport Name : Aurora Muni

Other Name : Aurora Muni

ICAO : KARR

IATA : AUZ

FAA : ARR

Latitude : 41.771931

Longitude : -88.475658

Country : United States

Local Date and Time : 23 Jan 2021 23:19

 

TAF (Terminal Aerodrome Forecast)

 

METAR (METeorological Aerodrome Report)

KARR 240452Z AUTO 12008KT 10SM BKN065 OVC080 M03/M08 A3020 RMK AO2 SLP236 T10281083

KARR 240352Z AUTO 12007KT 10SM OVC090 M03/M08 A3021 RMK AO2 SLP243 T10281083

KARR 240252Z 13009KT 10SM BKN080 OVC090 M03/M08 A3023 RMK AO2 SLP248 T10281083 56014

KARR 240152Z 12008KT 10SM OVC075 M03/M08 A3024 RMK AO2 SLP252 T10281083

To Charter a Jet Click here.